createdAt,value
2018-02-22T00:01:01.073Z,5.40
2018-02-22T00:03:28.611Z,5.60
2018-02-22T00:05:56.076Z,5.50
2018-02-22T00:08:23.545Z,5.50
2018-02-22T00:10:51.057Z,5.50
2018-02-22T00:13:18.527Z,5.60
2018-02-22T00:15:46.045Z,5.60
2018-02-22T00:18:14.300Z,5.50
2018-02-22T00:20:41.768Z,5.50
2018-02-22T00:23:09.236Z,5.50
2018-02-22T00:25:36.721Z,5.60
2018-02-22T00:28:04.197Z,5.50
2018-02-22T00:30:31.665Z,5.60
2018-02-22T00:32:59.152Z,5.60
2018-02-22T00:35:26.625Z,5.60
2018-02-22T00:37:54.093Z,5.60
2018-02-22T00:40:22.395Z,5.70
2018-02-22T00:42:49.867Z,5.70
2018-02-22T00:45:17.337Z,5.70
2018-02-22T00:47:44.828Z,5.60
2018-02-22T00:50:12.292Z,5.60
2018-02-22T00:52:39.766Z,5.80
2018-02-22T00:55:08.029Z,5.80
2018-02-22T00:57:36.260Z,5.60
2018-02-22T01:00:03.780Z,5.60
2018-02-22T01:02:32.032Z,5.60
2018-02-22T01:04:59.498Z,5.50
2018-02-22T01:07:27.072Z,5.60
2018-02-22T01:09:55.348Z,5.50
2018-02-22T01:12:22.908Z,5.50
2018-02-22T01:14:50.396Z,5.70
2018-02-22T01:17:17.867Z,5.70
2018-02-22T01:19:45.352Z,5.50
2018-02-22T01:22:12.825Z,5.70
2018-02-22T01:24:41.072Z,5.70
2018-02-22T01:27:08.561Z,5.70
2018-02-22T01:29:36.036Z,5.60
2018-02-22T01:32:03.513Z,5.60
2018-02-22T01:34:31.764Z,5.50
2018-02-22T01:36:59.232Z,5.50
2018-02-22T01:39:27.513Z,5.50
2018-02-22T01:41:55.785Z,5.60
2018-02-22T01:44:23.252Z,5.50
2018-02-22T01:46:51.489Z,5.60
2018-02-22T01:49:18.996Z,5.50
2018-02-22T01:51:47.224Z,5.60
2018-02-22T01:54:14.697Z,5.50
2018-02-22T01:56:42.184Z,5.60
2018-02-22T01:59:10.417Z,5.40
2018-02-22T02:01:37.881Z,5.40
2018-02-22T02:04:05.368Z,5.30
2018-02-22T02:06:32.841Z,5.30
2018-02-22T02:09:01.211Z,5.40
2018-02-22T02:11:29.526Z,5.40
2018-02-22T02:13:57.012Z,5.30
2018-02-22T02:16:24.546Z,5.30
2018-02-22T02:18:52.027Z,5.30
2018-02-22T02:21:19.542Z,5.20
2018-02-22T02:23:47.001Z,5.20
2018-02-22T02:26:15.237Z,5.20
2018-02-22T02:28:42.704Z,5.10
2018-02-22T02:31:10.189Z,5.30
2018-02-22T02:33:38.429Z,5.10
2018-02-22T02:36:05.897Z,5.10
2018-02-22T02:38:33.394Z,5.10
2018-02-22T02:41:00.897Z,5.10
2018-02-22T02:43:28.364Z,5.20
2018-02-22T02:45:55.861Z,5.20
2018-02-22T02:48:24.089Z,5.10
2018-02-22T02:50:51.561Z,5.00
2018-02-22T02:53:19.076Z,5.10
2018-02-22T02:55:46.549Z,5.10
2018-02-22T02:58:14.014Z,5.00
2018-02-22T03:00:41.506Z,5.00
2018-02-22T03:03:10.209Z,5.10
2018-02-22T03:05:38.484Z,5.10
2018-02-22T03:08:06.724Z,5.10
2018-02-22T03:10:34.188Z,5.10
2018-02-22T03:13:01.682Z,5.10
2018-02-22T03:15:29.951Z,5.10
2018-02-22T03:17:58.232Z,4.90
2018-02-22T03:20:26.483Z,5.00
2018-02-22T03:22:53.949Z,5.00
2018-02-22T03:25:22.284Z,4.90
2018-02-22T03:27:49.808Z,4.90
2018-02-22T03:30:18.048Z,4.80
2018-02-22T03:32:45.552Z,4.80
2018-02-22T03:35:13.783Z,4.70
2018-02-22T03:37:41.248Z,4.70
2018-02-22T03:40:08.836Z,4.70
2018-02-22T03:42:37.064Z,4.50
2018-02-22T03:45:04.534Z,4.40
2018-02-22T03:47:32.022Z,4.50
2018-02-22T03:50:00.273Z,4.60
2018-02-22T03:52:27.761Z,4.50
2018-02-22T03:54:55.220Z,4.50
2018-02-22T03:57:22.679Z,4.40
2018-02-22T03:59:50.156Z,4.20
2018-02-22T04:02:18.390Z,4.20
2018-02-22T04:04:45.884Z,4.10
2018-02-22T04:07:14.148Z,4.10
2018-02-22T04:09:42.376Z,4.00
2018-02-22T04:12:09.861Z,3.90
2018-02-22T04:14:37.328Z,3.70
2018-02-22T04:17:05.620Z,3.90
2018-02-22T04:19:33.089Z,3.90
2018-02-22T04:22:01.366Z,3.80
2018-02-22T04:24:28.821Z,3.80
2018-02-22T04:26:57.065Z,3.90
2018-02-22T04:29:24.533Z,3.80
2018-02-22T04:31:52.020Z,3.40
2018-02-22T04:34:20.261Z,3.40
2018-02-22T04:36:47.725Z,3.40
2018-02-22T04:39:15.210Z,3.50
2018-02-22T04:41:43.447Z,3.30
2018-02-22T04:44:10.916Z,3.30
2018-02-22T04:46:38.400Z,3.30
2018-02-22T04:49:06.629Z,3.50
2018-02-22T04:51:34.093Z,3.40
2018-02-22T04:54:01.588Z,3.50
2018-02-22T04:56:29.057Z,3.40
2018-02-22T04:58:57.328Z,3.40
2018-02-22T05:01:25.570Z,3.50
2018-02-22T05:03:53.040Z,3.40
2018-02-22T05:06:20.532Z,3.50
2018-02-22T05:08:48.765Z,3.40
2018-02-22T05:11:16.233Z,3.40
2018-02-22T05:13:43.720Z,3.30
2018-02-22T05:16:11.994Z,3.00
2018-02-22T05:18:40.233Z,3.00
2018-02-22T05:21:07.716Z,3.00
2018-02-22T05:23:36.688Z,3.00
2018-02-22T05:26:04.163Z,3.00
2018-02-22T05:28:31.653Z,2.80
2018-02-22T05:30:59.916Z,3.10
2018-02-22T05:33:28.157Z,3.10
2018-02-22T05:35:55.633Z,3.00
2018-02-22T05:38:23.105Z,3.00
2018-02-22T05:40:50.592Z,3.00
2018-02-22T05:43:18.064Z,2.70
2018-02-22T05:45:45.537Z,2.90
2018-02-22T05:48:13.021Z,2.90
2018-02-22T05:50:40.505Z,3.00
2018-02-22T05:53:08.774Z,2.80
2018-02-22T05:58:06.124Z,2.90
2018-02-22T06:00:33.608Z,2.90
2018-02-22T06:03:01.078Z,3.10
2018-02-22T06:05:29.312Z,2.60
2018-02-22T06:07:56.805Z,2.50
2018-02-22T06:10:24.273Z,2.60
2018-02-22T06:12:52.581Z,2.60
2018-02-22T06:15:21.150Z,2.60
2018-02-22T06:17:49.393Z,2.60
2018-02-22T06:20:17.649Z,2.30
2018-02-22T06:22:45.114Z,2.30
2018-02-22T06:25:12.584Z,2.40
2018-02-22T06:27:40.844Z,2.30
2018-02-22T12:45:35.026Z,4.10
2018-02-22T12:48:02.496Z,10.40
2018-02-22T12:50:30.776Z,11.30
2018-02-22T12:52:59.020Z,12.40
2018-02-22T12:55:26.496Z,12.30
2018-02-22T12:57:54.000Z,11.60
2018-02-22T13:00:21.481Z,12.60
2018-02-22T13:02:48.957Z,12.90
2018-02-22T13:05:16.460Z,12.50
2018-02-22T13:07:43.934Z,12.40
2018-02-22T13:10:11.416Z,10.80
2018-02-22T13:12:38.910Z,7.80
2018-02-22T13:15:07.193Z,6.00
2018-02-22T13:17:35.440Z,5.50
2018-02-22T13:20:04.078Z,5.40
2018-02-22T13:22:31.549Z,5.40
2018-02-22T13:24:59.037Z,5.30
2018-02-22T13:27:26.517Z,5.20
2018-02-22T13:29:54.008Z,5.20
2018-02-22T13:32:21.531Z,5.20
2018-02-22T13:34:49.044Z,5.00
2018-02-22T13:37:37.415Z,5.00
2018-02-22T13:40:05.027Z,5.10
2018-02-22T13:42:32.669Z,5.20
2018-02-22T13:45:14.473Z,5.20
2018-02-22T13:47:44.252Z,5.10
2018-02-22T13:50:25.576Z,5.10
2018-02-22T13:52:54.156Z,5.10
2018-02-22T13:55:23.657Z,5.20
2018-02-22T13:57:52.362Z,5.20
2018-02-22T14:00:34.416Z,5.20
2018-02-22T14:03:01.916Z,5.10
2018-02-22T14:05:30.528Z,5.10
2018-02-22T14:07:58.049Z,5.00
2018-02-22T14:10:25.634Z,5.20
2018-02-22T14:12:53.176Z,5.20
2018-02-22T14:15:21.457Z,4.90
2018-02-22T14:17:49.737Z,5.00
2018-02-22T14:20:17.977Z,5.00
2018-02-22T14:22:45.481Z,5.00
2018-02-22T14:25:13.735Z,4.80
2018-02-22T14:27:43.434Z,4.80
2018-02-22T14:30:10.924Z,4.80
2018-02-22T14:32:39.173Z,5.00
2018-02-22T14:35:11.179Z,5.20
2018-02-22T14:37:38.660Z,5.10
2018-02-22T14:40:06.769Z,5.20
2018-02-22T14:42:34.936Z,5.20
2018-02-22T14:45:03.590Z,5.20
2018-02-22T14:47:32.391Z,5.10
2018-02-22T14:49:59.897Z,4.90
2018-02-22T14:52:33.292Z,4.90
2018-02-22T14:55:01.065Z,4.90
2018-02-22T14:57:29.300Z,5.00
2018-02-22T15:00:00.437Z,4.90
2018-02-22T15:02:29.650Z,5.00
2018-02-22T15:04:58.145Z,4.90
2018-02-22T15:07:26.029Z,5.00
2018-02-22T15:09:54.508Z,5.00
2018-02-22T15:12:24.466Z,5.00
2018-02-22T15:14:55.677Z,5.00
2018-02-22T15:17:26.442Z,5.10
2018-02-22T15:19:56.140Z,5.10
2018-02-22T15:22:24.378Z,5.10
2018-02-22T15:24:53.332Z,5.10
2018-02-22T15:27:20.829Z,5.00
2018-02-22T15:29:48.301Z,5.10
2018-02-22T15:32:17.860Z,5.10
2018-02-22T15:34:45.349Z,5.00
2018-02-22T15:37:12.834Z,5.10
2018-02-22T15:39:41.096Z,5.20
2018-02-22T15:42:10.156Z,5.00
2018-02-22T15:44:37.665Z,5.00
2018-02-22T15:47:05.926Z,5.30
2018-02-22T15:49:34.897Z,5.20
2018-02-22T15:52:02.371Z,5.10
2018-02-22T15:54:29.860Z,5.30
2018-02-22T15:56:58.101Z,5.20
2018-02-22T15:59:25.573Z,5.20
2018-02-22T16:01:53.825Z,5.20
2018-02-22T16:04:21.293Z,5.20
2018-02-22T16:06:48.760Z,5.10
2018-02-22T16:09:16.253Z,5.10
2018-02-22T16:11:44.492Z,5.10
2018-02-22T16:14:12.005Z,5.10
2018-02-22T16:16:39.542Z,5.10
2018-02-22T16:19:07.782Z,5.10
2018-02-22T16:21:35.253Z,5.10
2018-02-22T16:24:03.884Z,5.10
2018-02-22T16:26:31.356Z,5.00
2018-02-22T16:28:58.826Z,5.00
2018-02-22T16:31:26.333Z,5.00
2018-02-22T16:33:53.810Z,6.60
2018-02-22T16:36:22.048Z,8.00
2018-02-22T16:38:49.541Z,7.90
2018-02-22T16:41:17.780Z,6.50
2018-02-22T16:43:45.257Z,6.50
2018-02-22T16:46:12.749Z,6.80
2018-02-22T16:48:40.223Z,6.20
2018-02-22T16:51:07.696Z,6.00
2018-02-22T16:53:35.194Z,5.90
2018-02-22T16:56:02.756Z,5.90
2018-02-22T16:58:31.756Z,5.30
2018-02-22T17:01:00.033Z,5.50
2018-02-22T17:03:28.272Z,5.50
2018-02-22T17:05:55.742Z,5.40
2018-02-22T17:08:23.228Z,5.30
2018-02-22T17:10:51.464Z,5.00
2018-02-22T17:13:18.949Z,5.00
2018-02-22T17:15:46.434Z,4.80
2018-02-22T17:18:14.672Z,4.70
2018-02-22T17:20:42.161Z,4.70
2018-02-22T17:23:10.400Z,4.70
2018-02-22T17:25:37.380Z,4.70
2018-02-22T17:28:11.349Z,4.30
2018-02-22T17:30:45.876Z,4.30
2018-02-22T17:33:15.855Z,4.20
2018-02-22T17:35:53.573Z,3.90
2018-02-22T17:38:25.596Z,4.20
2018-02-22T17:40:57.023Z,4.40
2018-02-22T17:43:24.600Z,4.30
2018-02-22T17:45:52.083Z,4.40
2018-02-22T17:48:20.323Z,4.30
2018-02-22T17:50:47.813Z,4.30
2018-02-22T17:53:16.054Z,4.00
2018-02-22T17:55:43.532Z,4.00
2018-02-22T17:58:11.025Z,4.20
2018-02-22T18:00:39.639Z,4.10
2018-02-22T18:03:07.117Z,4.10
2018-02-22T18:05:34.609Z,4.30
2018-02-22T18:08:02.916Z,4.50
2018-02-22T18:10:30.392Z,4.40
2018-02-22T18:12:57.889Z,4.40
2018-02-22T18:15:25.377Z,4.50
2018-02-22T18:17:52.853Z,4.40
2018-02-22T18:20:20.384Z,4.30
2018-02-22T18:22:48.620Z,4.40
2018-02-22T18:25:16.093Z,4.30
2018-02-22T18:27:45.093Z,3.90
2018-02-22T18:32:55.811Z,4.10
2018-02-22T18:35:23.289Z,4.00
2018-02-22T18:37:56.518Z,4.10
2018-02-22T18:40:29.788Z,4.10
2018-02-22T18:42:57.284Z,4.20
2018-02-22T18:45:24.800Z,4.20
2018-02-22T18:47:53.031Z,3.80
2018-02-22T18:52:49.380Z,3.70
2018-02-22T18:55:17.693Z,3.60
2018-02-22T18:57:45.184Z,3.50
2018-02-22T19:00:12.657Z,3.50
2018-02-22T19:05:10.045Z,3.60
2018-02-22T19:27:28.995Z,3.50
2018-02-22T19:29:56.508Z,3.40
2018-02-22T19:32:23.993Z,3.40
2018-02-22T19:34:51.530Z,3.30
2018-02-22T19:37:19.785Z,3.60
2018-02-22T19:39:47.268Z,3.50
2018-02-22T19:42:15.541Z,3.50
2018-02-22T19:44:43.801Z,3.70
2018-02-22T19:47:12.037Z,3.70
2018-02-22T19:49:39.552Z,3.60
2018-02-22T19:52:07.031Z,3.60
2018-02-22T19:54:35.272Z,3.30
2018-02-22T19:57:02.832Z,3.20
2018-02-22T19:59:31.072Z,3.40
2018-02-22T20:01:58.549Z,3.40
2018-02-22T20:04:26.054Z,3.40
2018-02-22T20:06:54.304Z,3.40
2018-02-22T20:09:21.776Z,3.30
2018-02-22T20:11:49.306Z,3.40
2018-02-22T20:14:16.800Z,3.40
2018-02-22T20:16:44.310Z,3.50
2018-02-22T20:19:12.070Z,3.30
2018-02-22T20:21:40.681Z,3.50
2018-02-22T20:24:08.168Z,3.30
2018-02-22T20:26:36.435Z,3.20
2018-02-22T20:29:03.963Z,3.20
2018-02-22T20:31:32.013Z,3.10
2018-02-22T20:34:01.870Z,3.40
2018-02-22T20:36:29.698Z,3.40
2018-02-22T20:38:57.386Z,3.30
2018-02-22T20:41:25.127Z,3.40
2018-02-22T20:43:52.899Z,3.00
2018-02-22T20:46:20.862Z,3.10
2018-02-22T20:48:48.563Z,3.20
2018-02-22T20:51:32.990Z,3.20
2018-02-22T20:54:00.853Z,3.20
2018-02-22T20:56:28.720Z,3.20
2018-02-22T20:58:57.185Z,3.30
2018-02-22T21:01:24.965Z,3.20
2018-02-22T21:03:52.833Z,3.60
2018-02-22T21:06:21.930Z,3.40
2018-02-22T21:08:49.771Z,3.30
2018-02-22T21:11:17.563Z,3.20
2018-02-22T21:13:45.180Z,3.40
2018-02-22T21:16:13.624Z,3.60
2018-02-22T21:18:41.264Z,3.60
2018-02-22T21:21:09.137Z,3.40
2018-02-22T21:23:36.730Z,3.60
2018-02-22T21:26:05.444Z,3.50
2018-02-22T21:28:33.802Z,3.60
2018-02-22T21:31:01.638Z,3.50
2018-02-22T21:33:29.502Z,3.80
2018-02-22T21:35:57.074Z,3.90
2018-02-22T21:38:24.986Z,3.80
2018-02-22T21:41:06.117Z,3.90
2018-02-22T21:43:33.618Z,3.90
2018-02-22T21:46:01.092Z,4.00
2018-02-22T21:48:29.336Z,4.20
2018-02-22T21:50:57.144Z,4.10
2018-02-22T21:53:25.410Z,4.50
2018-02-22T21:55:53.725Z,4.70
2018-02-22T21:58:21.388Z,4.70
2018-02-22T22:00:48.872Z,5.10
2018-02-22T22:03:16.362Z,5.30
2018-02-22T22:05:44.640Z,5.30
2018-02-22T22:08:12.169Z,5.30
2018-02-22T22:10:39.732Z,5.40
2018-02-22T22:13:07.265Z,5.40
2018-02-22T22:15:34.748Z,5.40
2018-02-22T22:18:02.245Z,5.30
2018-02-22T22:20:30.523Z,5.20
2018-02-22T22:22:58.760Z,5.30
2018-02-22T22:25:26.261Z,5.20
2018-02-22T22:27:54.504Z,5.20
2018-02-22T22:30:21.974Z,5.10
2018-02-22T22:32:49.468Z,5.30
2018-02-22T22:35:17.705Z,5.20
2018-02-22T22:37:45.173Z,5.10
2018-02-22T22:40:12.678Z,5.30
2018-02-22T22:42:40.143Z,5.20
2018-02-22T22:45:07.614Z,5.30
2018-02-22T22:47:35.129Z,5.40
2018-02-22T22:50:02.614Z,5.30
2018-02-22T22:52:30.088Z,5.30
2018-02-22T22:54:57.578Z,5.40
2018-02-22T22:57:25.060Z,5.30
2018-02-22T22:59:53.315Z,5.20
2018-02-22T23:02:27.948Z,5.20
2018-02-22T23:05:03.696Z,5.20
2018-02-22T23:07:33.169Z,5.20
2018-02-22T23:10:04.453Z,5.20
2018-02-22T23:12:31.967Z,5.20
2018-02-22T23:14:59.443Z,5.20
2018-02-22T23:17:27.832Z,5.20
2018-02-22T23:19:57.873Z,5.10
2018-02-22T23:22:27.825Z,5.20
2018-02-22T23:24:55.295Z,5.10
2018-02-22T23:27:22.813Z,5.20
2018-02-22T23:29:53.563Z,5.20
2018-02-22T23:32:21.104Z,5.20
2018-02-22T23:34:51.540Z,5.00
2018-02-22T23:37:22.213Z,5.10
2018-02-22T23:39:49.816Z,5.00
2018-02-22T23:42:23.840Z,5.10
2018-02-22T23:44:51.450Z,4.90
2018-02-22T23:47:19.864Z,5.10
2018-02-22T23:49:48.180Z,5.10
2018-02-22T23:52:20.084Z,5.10
2018-02-22T23:54:48.347Z,5.10
2018-02-22T23:57:18.132Z,5.00
2018-02-22T23:59:46.365Z,5.10
